createdAt,value
2019-03-29T00:00:58.923Z,5.60
2019-03-29T00:03:29.312Z,5.60
2019-03-29T00:05:59.550Z,5.60
2019-03-29T00:08:32.188Z,5.60
2019-03-29T00:11:02.459Z,5.60
2019-03-29T00:13:32.686Z,5.50
2019-03-29T00:16:02.991Z,5.50
2019-03-29T00:18:33.299Z,5.50
2019-03-29T00:21:06.015Z,5.40
2019-03-29T00:23:36.248Z,5.40
2019-03-29T00:26:06.455Z,5.40
2019-03-29T00:28:36.978Z,5.40
2019-03-29T00:31:07.462Z,5.40
2019-03-29T00:33:37.681Z,5.40
2019-03-29T00:36:07.990Z,5.40
2019-03-29T00:38:49.258Z,5.40
2019-03-29T00:41:19.513Z,5.30
2019-03-29T00:43:49.739Z,5.30
2019-03-29T00:46:19.973Z,5.30
2019-03-29T00:48:50.600Z,5.30
2019-03-29T00:51:20.853Z,5.30
2019-03-29T00:53:51.082Z,5.30
2019-03-29T00:56:21.378Z,5.30
2019-03-29T00:58:51.722Z,5.30
2019-03-29T01:01:40.954Z,5.20
2019-03-29T01:04:11.671Z,5.20
2019-03-29T01:06:41.887Z,5.20
2019-03-29T01:09:12.574Z,5.20
2019-03-29T01:11:42.867Z,5.20
2019-03-29T01:14:13.206Z,5.20
2019-03-29T01:16:43.642Z,5.20
2019-03-29T01:19:13.930Z,5.10
2019-03-29T01:21:44.600Z,5.10
2019-03-29T01:24:15.976Z,5.10
2019-03-29T01:26:46.610Z,5.10
2019-03-29T01:29:16.913Z,5.00
2019-03-29T01:31:48.637Z,5.00
2019-03-29T01:34:19.946Z,5.00
2019-03-29T01:36:50.182Z,5.00
2019-03-29T01:39:20.411Z,5.00
2019-03-29T01:41:50.618Z,4.90
2019-03-29T01:44:21.259Z,4.90
2019-03-29T01:46:51.465Z,4.90
2019-03-29T01:49:22.982Z,4.90
2019-03-29T01:51:53.966Z,4.90
2019-03-29T01:54:24.482Z,4.90
2019-03-29T01:56:54.709Z,4.90
2019-03-29T01:59:24.926Z,4.90
2019-03-29T02:01:55.400Z,4.90
2019-03-29T02:04:25.644Z,4.90
2019-03-29T02:06:56.834Z,4.80
2019-03-29T02:09:27.067Z,4.80
2019-03-29T02:11:57.360Z,4.80
2019-03-29T02:14:29.954Z,4.80
2019-03-29T02:17:00.311Z,4.80
2019-03-29T02:19:31.970Z,4.80
2019-03-29T02:22:02.186Z,4.80
2019-03-29T02:24:32.427Z,4.80
2019-03-29T02:27:02.635Z,4.80
2019-03-29T02:29:33.026Z,4.70
2019-03-29T02:32:03.247Z,4.70
2019-03-29T02:34:33.571Z,4.70
2019-03-29T02:37:05.031Z,4.70
2019-03-29T02:39:35.351Z,4.70
2019-03-29T02:42:05.655Z,4.70
2019-03-29T02:44:35.869Z,4.60
2019-03-29T02:47:07.428Z,4.60
2019-03-29T02:49:37.640Z,4.60
2019-03-29T02:52:07.875Z,4.60
2019-03-29T02:54:38.102Z,4.60
2019-03-29T02:57:08.398Z,4.60
2019-03-29T02:59:38.651Z,4.60
2019-03-29T03:02:08.959Z,4.60
2019-03-29T03:04:39.272Z,4.60
2019-03-29T03:07:09.898Z,4.60
2019-03-29T03:09:40.128Z,4.50
2019-03-29T03:12:10.751Z,4.50
2019-03-29T03:14:41.242Z,4.60
2019-03-29T03:17:11.467Z,4.50
2019-03-29T03:19:42.098Z,4.50
2019-03-29T03:22:12.362Z,4.50
2019-03-29T03:24:42.959Z,4.40
2019-03-29T03:27:14.291Z,4.40
2019-03-29T03:29:48.018Z,4.40
2019-03-29T03:32:16.667Z,4.50
2019-03-29T03:34:47.367Z,4.40
2019-03-29T03:37:17.602Z,4.40
2019-03-29T03:39:48.334Z,4.40
2019-03-29T03:42:18.756Z,4.40
2019-03-29T03:44:49.071Z,4.30
2019-03-29T03:47:19.323Z,4.30
2019-03-29T03:49:49.983Z,4.30
2019-03-29T03:52:20.381Z,4.30
2019-03-29T03:54:50.781Z,4.30
2019-03-29T03:57:21.590Z,4.30
2019-03-29T03:59:53.535Z,4.30
2019-03-29T04:02:23.802Z,4.30
2019-03-29T04:04:54.107Z,4.30
2019-03-29T04:07:26.298Z,4.40
2019-03-29T04:09:56.495Z,4.30
2019-03-29T04:12:27.862Z,4.30
2019-03-29T04:14:58.552Z,4.30
2019-03-29T04:17:28.863Z,4.20
2019-03-29T04:19:59.066Z,4.20
2019-03-29T04:22:29.306Z,4.20
2019-03-29T04:24:59.619Z,4.10
2019-03-29T04:27:30.810Z,4.10
2019-03-29T04:30:01.022Z,4.00
2019-03-29T04:32:31.235Z,3.90
2019-03-29T04:35:14.137Z,3.90
2019-03-29T04:37:44.343Z,3.90
2019-03-29T04:40:14.752Z,3.90
2019-03-29T04:42:44.960Z,3.90
2019-03-29T04:45:16.324Z,3.90
2019-03-29T04:47:46.539Z,3.90
2019-03-29T04:50:16.739Z,3.80
2019-03-29T04:52:47.931Z,3.80
2019-03-29T04:55:18.242Z,3.80
2019-03-29T04:57:48.601Z,3.80
2019-03-29T05:00:18.990Z,3.70
2019-03-29T05:02:49.330Z,3.70
2019-03-29T05:05:19.631Z,3.70
2019-03-29T05:07:50.296Z,3.60
2019-03-29T05:10:21.986Z,3.60
2019-03-29T05:12:52.545Z,3.50
2019-03-29T05:15:22.766Z,3.40
2019-03-29T05:17:52.972Z,3.40
2019-03-29T05:20:23.182Z,3.30
2019-03-29T05:22:53.385Z,3.30
2019-03-29T05:25:23.618Z,3.20
2019-03-29T05:27:53.901Z,3.20
2019-03-29T05:30:24.458Z,3.20
2019-03-29T05:32:54.694Z,3.20
2019-03-29T05:35:26.510Z,3.20
2019-03-29T05:37:57.054Z,3.30
2019-03-29T05:40:34.901Z,3.40
2019-03-29T05:42:59.849Z,3.50
2019-03-29T05:45:30.094Z,3.70
2019-03-29T05:48:00.322Z,3.80
2019-03-29T05:50:36.732Z,3.90
2019-03-29T05:53:05.917Z,4.00
2019-03-29T05:55:37.747Z,4.00
2019-03-29T05:58:07.951Z,4.20
2019-03-29T06:00:45.443Z,4.20
2019-03-29T06:03:15.646Z,4.20
2019-03-29T06:05:45.978Z,4.30
2019-03-29T06:08:16.199Z,4.30
2019-03-29T06:10:49.233Z,4.40
2019-03-29T06:13:18.692Z,4.40
2019-03-29T06:15:48.939Z,4.40
2019-03-29T06:18:19.698Z,4.40
2019-03-29T06:20:50.066Z,4.50
2019-03-29T06:23:20.279Z,4.50
2019-03-29T06:25:50.609Z,4.60
2019-03-29T06:28:20.815Z,4.70
2019-03-29T06:30:51.071Z,4.80
2019-03-29T06:33:21.759Z,4.90
2019-03-29T06:35:55.835Z,5.00
2019-03-29T06:38:28.515Z,5.00
2019-03-29T06:41:03.085Z,5.00
2019-03-29T06:43:31.123Z,4.90
2019-03-29T06:46:02.914Z,5.00
2019-03-29T06:48:33.150Z,5.00
2019-03-29T06:51:03.426Z,5.20
2019-03-29T06:53:33.972Z,5.30
2019-03-29T06:56:04.319Z,5.50
2019-03-29T06:58:36.215Z,5.60
2019-03-29T07:01:06.998Z,5.80
2019-03-29T07:03:38.447Z,5.90
2019-03-29T07:06:08.678Z,6.10
2019-03-29T07:08:39.202Z,6.30
2019-03-29T07:11:17.095Z,6.40
2019-03-29T07:13:56.237Z,6.60
2019-03-29T07:16:15.349Z,6.70
2019-03-29T07:18:45.722Z,6.90
2019-03-29T07:21:21.888Z,7.20
2019-03-29T07:23:48.050Z,7.50
2019-03-29T07:26:20.755Z,7.70
2019-03-29T07:28:51.157Z,7.90
2019-03-29T07:31:21.374Z,8.10
2019-03-29T07:33:51.746Z,8.40
2019-03-29T07:36:22.047Z,8.50
2019-03-29T07:38:52.387Z,8.60
2019-03-29T07:41:31.641Z,8.50
2019-03-29T07:43:54.555Z,8.60
2019-03-29T07:46:24.796Z,8.60
2019-03-29T07:48:55.039Z,8.70
2019-03-29T07:51:25.267Z,8.70
2019-03-29T07:53:55.498Z,8.70
2019-03-29T07:56:25.723Z,8.80
2019-03-29T07:58:56.031Z,8.80
2019-03-29T08:01:26.251Z,8.90
2019-03-29T08:03:56.475Z,8.90
2019-03-29T08:06:26.759Z,9.00
2019-03-29T08:08:57.010Z,9.00
2019-03-29T08:11:28.408Z,9.10
2019-03-29T08:13:58.922Z,9.20
2019-03-29T08:16:29.166Z,9.30
2019-03-29T08:18:59.776Z,9.30
2019-03-29T08:21:30.014Z,9.40
2019-03-29T08:24:00.298Z,9.30
2019-03-29T08:26:30.637Z,9.30
2019-03-29T08:29:00.862Z,9.40
2019-03-29T08:31:31.136Z,9.40
2019-03-29T08:34:02.690Z,9.50
2019-03-29T08:36:32.979Z,9.60
2019-03-29T08:39:04.504Z,9.70
2019-03-29T08:41:34.842Z,9.70
2019-03-29T08:44:05.141Z,9.80
2019-03-29T08:46:36.830Z,9.90
2019-03-29T08:49:10.650Z,10.10
2019-03-29T08:51:41.571Z,10.30
2019-03-29T08:54:11.993Z,10.50
2019-03-29T08:56:42.963Z,10.70
2019-03-29T08:59:17.293Z,10.90
2019-03-29T09:01:46.203Z,11.10
2019-03-29T09:04:16.590Z,11.30
2019-03-29T09:06:53.237Z,11.50
2019-03-29T09:09:20.346Z,11.60
2019-03-29T09:11:50.614Z,11.60
2019-03-29T09:14:20.842Z,11.70
2019-03-29T09:16:53.610Z,11.80
2019-03-29T09:19:24.988Z,12.00
2019-03-29T09:21:55.305Z,12.10
2019-03-29T09:24:25.543Z,12.20
2019-03-29T09:26:55.852Z,12.40
2019-03-29T09:29:26.450Z,12.50
2019-03-29T09:31:56.841Z,12.70
2019-03-29T09:34:28.817Z,12.80
2019-03-29T09:37:00.086Z,12.80
2019-03-29T09:39:30.615Z,12.90
2019-03-29T09:42:00.986Z,13.00
2019-03-29T09:44:31.223Z,13.10
2019-03-29T09:47:01.478Z,13.20
2019-03-29T09:49:33.157Z,13.30
2019-03-29T09:52:03.469Z,13.50
2019-03-29T09:54:33.714Z,13.50
2019-03-29T09:57:03.962Z,13.50
2019-03-29T09:59:34.262Z,13.60
2019-03-29T10:02:04.643Z,13.60
2019-03-29T10:04:34.973Z,13.60
2019-03-29T10:07:05.658Z,13.70
2019-03-29T10:09:35.896Z,13.70
2019-03-29T10:12:06.154Z,13.80
2019-03-29T10:14:36.374Z,13.80
2019-03-29T10:17:06.606Z,13.90
2019-03-29T10:19:36.922Z,13.90
2019-03-29T10:22:11.589Z,14.00
2019-03-29T10:24:41.828Z,14.00
2019-03-29T10:27:12.127Z,14.10
2019-03-29T10:29:42.442Z,14.20
2019-03-29T10:32:13.643Z,14.30
2019-03-29T10:34:43.890Z,14.30
2019-03-29T10:37:26.555Z,14.30
2019-03-29T10:39:56.798Z,14.30
2019-03-29T10:42:27.186Z,14.30
2019-03-29T10:44:57.427Z,14.30
2019-03-29T10:47:42.611Z,14.50
2019-03-29T10:49:59.662Z,14.50
2019-03-29T10:52:30.043Z,14.50
2019-03-29T10:55:02.364Z,14.60
2019-03-29T10:57:32.698Z,14.70
2019-03-29T11:00:03.020Z,14.70
2019-03-29T11:02:33.339Z,14.90
2019-03-29T11:05:03.686Z,14.90
2019-03-29T11:07:34.018Z,14.80
2019-03-29T11:10:04.486Z,14.90
2019-03-29T11:12:34.727Z,14.90
2019-03-29T11:15:06.787Z,14.70
2019-03-29T11:17:37.514Z,14.60
2019-03-29T11:20:08.118Z,14.60
2019-03-29T11:22:38.369Z,14.70
2019-03-29T11:25:09.261Z,14.80
2019-03-29T11:27:39.549Z,15.00
2019-03-29T11:30:12.953Z,15.10
2019-03-29T11:32:43.178Z,14.90
2019-03-29T11:35:13.570Z,15.00
2019-03-29T11:37:43.906Z,15.00
2019-03-29T11:40:14.793Z,15.10
2019-03-29T11:42:45.104Z,15.20
2019-03-29T11:45:15.774Z,15.30
2019-03-29T11:47:45.990Z,15.40
2019-03-29T11:50:16.509Z,15.40
2019-03-29T11:52:46.917Z,15.30
2019-03-29T11:55:17.226Z,15.40
2019-03-29T11:57:47.465Z,15.40
2019-03-29T12:00:22.910Z,15.30
2019-03-29T12:02:53.214Z,15.40
2019-03-29T12:05:23.522Z,15.30
2019-03-29T12:07:53.765Z,15.30
2019-03-29T12:10:24.150Z,15.30
2019-03-29T12:12:54.447Z,15.50
2019-03-29T12:15:25.223Z,15.60
2019-03-29T12:17:55.490Z,15.80
2019-03-29T12:20:25.794Z,15.80
2019-03-29T12:22:56.112Z,15.80
2019-03-29T12:25:26.424Z,15.90
2019-03-29T12:27:56.722Z,15.80
2019-03-29T12:30:31.692Z,15.80
2019-03-29T12:32:58.969Z,15.80
2019-03-29T12:35:29.207Z,15.80
2019-03-29T12:37:59.553Z,15.70
2019-03-29T12:40:30.731Z,15.70
2019-03-29T12:43:01.070Z,15.60
2019-03-29T12:45:31.905Z,15.70
2019-03-29T12:48:02.452Z,15.70
2019-03-29T12:50:32.776Z,15.40
2019-03-29T12:53:03.007Z,15.30
2019-03-29T12:55:33.249Z,15.30
2019-03-29T12:58:04.545Z,15.40
2019-03-29T13:00:36.391Z,15.60
2019-03-29T13:03:06.702Z,15.70
2019-03-29T13:05:39.113Z,15.70
2019-03-29T13:08:12.815Z,15.70
2019-03-29T13:10:43.123Z,15.80
2019-03-29T13:13:15.682Z,15.90
2019-03-29T13:15:46.001Z,16.10
2019-03-29T13:18:16.215Z,16.20
2019-03-29T13:20:46.578Z,16.20
2019-03-29T13:23:16.923Z,16.20
2019-03-29T13:25:47.146Z,16.10
2019-03-29T13:28:17.762Z,15.90
2019-03-29T13:30:48.066Z,15.80
2019-03-29T13:33:20.572Z,15.60
2019-03-29T13:35:51.195Z,15.60
2019-03-29T13:38:21.438Z,15.50
2019-03-29T13:40:51.682Z,15.40
2019-03-29T13:43:21.940Z,15.40
2019-03-29T13:45:52.152Z,15.40
2019-03-29T13:48:22.406Z,15.60
2019-03-29T13:50:52.716Z,15.50
2019-03-29T13:53:22.961Z,15.60
2019-03-29T13:55:53.583Z,15.80
2019-03-29T13:58:23.803Z,15.90
2019-03-29T14:00:54.022Z,15.90
2019-03-29T14:03:24.305Z,15.90
2019-03-29T14:05:54.614Z,15.90
2019-03-29T14:08:25.859Z,15.90
2019-03-29T14:10:56.175Z,15.90
2019-03-29T14:13:26.424Z,15.90
2019-03-29T14:15:58.206Z,15.90
2019-03-29T14:18:28.437Z,16.00
2019-03-29T14:20:58.838Z,16.20
2019-03-29T14:23:29.100Z,16.20
2019-03-29T14:25:59.320Z,16.20
2019-03-29T14:28:29.646Z,16.40
2019-03-29T14:30:59.898Z,16.60
2019-03-29T14:33:30.161Z,16.70
2019-03-29T14:36:00.462Z,16.60
2019-03-29T14:38:30.718Z,16.50
2019-03-29T14:41:00.982Z,16.50
2019-03-29T14:43:31.223Z,16.40
2019-03-29T14:46:01.542Z,16.30
2019-03-29T14:48:31.772Z,16.40
2019-03-29T14:51:03.162Z,16.50
2019-03-29T14:53:33.399Z,16.50
2019-03-29T14:56:03.937Z,16.60
2019-03-29T14:58:34.179Z,16.50
2019-03-29T15:01:07.514Z,16.70
2019-03-29T15:03:37.754Z,17.10
2019-03-29T15:06:08.190Z,17.20
2019-03-29T15:08:38.426Z,17.50
2019-03-29T15:11:21.260Z,18.40
2019-03-29T15:13:40.611Z,19.30
2019-03-29T15:16:10.891Z,19.90
2019-03-29T15:18:41.162Z,20.40
2019-03-29T15:21:11.479Z,20.50
2019-03-29T15:23:41.711Z,20.60
2019-03-29T15:26:12.066Z,21.00
2019-03-29T15:28:42.386Z,21.10
2019-03-29T15:31:13.050Z,21.10
2019-03-29T15:33:43.382Z,21.20
2019-03-29T15:36:13.634Z,21.30
2019-03-29T15:38:43.930Z,21.30
2019-03-29T15:41:14.150Z,21.50
2019-03-29T15:43:44.387Z,21.80
2019-03-29T15:46:17.013Z,22.20
2019-03-29T15:48:47.270Z,22.60
2019-03-29T15:51:17.577Z,22.60
2019-03-29T15:53:48.274Z,22.30
2019-03-29T15:56:18.757Z,22.10
2019-03-29T15:58:49.022Z,22.60
2019-03-29T16:01:19.296Z,22.50
2019-03-29T16:03:49.551Z,22.50
2019-03-29T16:06:19.819Z,22.50
2019-03-29T16:08:50.162Z,22.60
2019-03-29T16:11:22.479Z,22.20
2019-03-29T16:13:52.337Z,21.90
2019-03-29T16:16:22.554Z,22.20
2019-03-29T16:18:52.794Z,22.70
2019-03-29T16:21:23.047Z,23.00
2019-03-29T16:23:53.298Z,22.60
2019-03-29T16:26:24.544Z,22.10
2019-03-29T16:28:54.863Z,21.80
2019-03-29T16:31:25.925Z,21.70
2019-03-29T16:33:56.217Z,21.80
2019-03-29T16:36:26.462Z,21.60
2019-03-29T16:38:56.765Z,21.70
2019-03-29T16:41:26.990Z,21.70
2019-03-29T16:43:57.299Z,21.40
2019-03-29T16:46:27.543Z,21.50
2019-03-29T16:48:57.866Z,21.40
2019-03-29T16:51:28.239Z,21.30
2019-03-29T16:53:58.496Z,21.00
2019-03-29T16:56:28.723Z,21.00
2019-03-29T16:58:58.967Z,21.20
2019-03-29T17:01:29.240Z,21.50
2019-03-29T17:03:59.481Z,21.60
2019-03-29T17:06:29.713Z,21.20
2019-03-29T17:08:59.966Z,20.90
2019-03-29T17:11:30.192Z,20.70
2019-03-29T17:14:00.488Z,20.40
2019-03-29T17:16:30.986Z,20.50
2019-03-29T17:19:01.306Z,20.60
2019-03-29T17:21:31.546Z,20.10
2019-03-29T17:24:01.880Z,19.40
2019-03-29T17:26:33.156Z,18.90
2019-03-29T17:29:04.147Z,18.40
2019-03-29T17:31:34.382Z,17.80
2019-03-29T17:34:06.322Z,17.20
2019-03-29T17:36:36.558Z,16.60
2019-03-29T17:39:08.595Z,15.90
2019-03-29T17:41:38.890Z,15.30
2019-03-29T17:44:09.114Z,14.60
2019-03-29T17:46:39.409Z,14.20
2019-03-29T17:49:09.646Z,13.70
2019-03-29T17:51:39.862Z,13.40
2019-03-29T17:54:10.129Z,13.20
2019-03-29T17:56:40.339Z,13.00
2019-03-29T17:59:10.584Z,12.70
2019-03-29T18:01:40.910Z,12.50
2019-03-29T18:04:12.176Z,12.30
2019-03-29T18:06:46.881Z,12.10
2019-03-29T18:09:15.679Z,11.90
2019-03-29T18:11:46.022Z,11.80
2019-03-29T18:14:16.334Z,11.60
2019-03-29T18:16:46.590Z,11.50
2019-03-29T18:19:16.843Z,11.40
2019-03-29T18:21:48.298Z,11.30
2019-03-29T18:24:18.546Z,11.20
2019-03-29T18:26:49.327Z,11.10
2019-03-29T18:29:19.659Z,11.00
2019-03-29T18:31:50.051Z,11.00
2019-03-29T18:34:20.471Z,10.90
2019-03-29T18:36:52.488Z,10.80
2019-03-29T18:39:23.007Z,10.70
2019-03-29T18:41:53.570Z,10.60
2019-03-29T18:44:23.869Z,10.50
2019-03-29T18:46:55.198Z,10.50
2019-03-29T18:49:25.522Z,10.40
2019-03-29T18:51:55.902Z,10.40
2019-03-29T18:54:26.185Z,10.30
2019-03-29T18:56:56.515Z,10.20
2019-03-29T18:59:27.107Z,10.10
2019-03-29T19:01:57.363Z,10.10
2019-03-29T19:04:28.964Z,10.10
2019-03-29T19:06:59.198Z,10.00
2019-03-29T19:09:31.676Z,9.90
2019-03-29T19:12:01.382Z,9.80
2019-03-29T19:14:31.610Z,9.70
2019-03-29T19:17:01.855Z,9.70
2019-03-29T19:19:32.069Z,9.70
2019-03-29T19:22:02.331Z,9.60
2019-03-29T19:24:32.577Z,9.50
2019-03-29T19:27:02.870Z,9.40
2019-03-29T19:29:33.109Z,9.40
2019-03-29T19:32:03.405Z,9.30
2019-03-29T19:34:33.698Z,9.20
2019-03-29T19:37:04.312Z,9.20
2019-03-29T19:39:34.595Z,9.20
2019-03-29T19:42:04.974Z,9.20
2019-03-29T19:44:35.184Z,9.10
2019-03-29T19:47:13.511Z,9.10
2019-03-29T19:49:37.398Z,9.10
2019-03-29T19:52:07.722Z,9.00
2019-03-29T19:54:38.046Z,9.00
2019-03-29T19:57:08.419Z,8.90
2019-03-29T19:59:38.673Z,8.80
2019-03-29T20:02:09.045Z,8.80
2019-03-29T20:04:39.342Z,8.70
2019-03-29T20:07:09.562Z,8.70
2019-03-29T20:09:42.058Z,8.60
2019-03-29T20:12:11.931Z,8.60
2019-03-29T20:14:42.170Z,8.60
2019-03-29T20:17:21.749Z,8.50
2019-03-29T20:19:44.410Z,8.50
2019-03-29T20:22:16.230Z,8.50
2019-03-29T20:24:46.774Z,8.40
2019-03-29T20:27:17.012Z,8.40
2019-03-29T20:29:47.238Z,8.40
2019-03-29T20:32:17.533Z,8.40
2019-03-29T20:34:47.794Z,8.30
2019-03-29T20:37:18.018Z,8.30
2019-03-29T20:39:48.277Z,8.30
2019-03-29T20:42:18.542Z,8.30
2019-03-29T20:44:50.002Z,8.30
2019-03-29T20:47:20.318Z,8.30
2019-03-29T20:49:51.078Z,8.30
2019-03-29T20:52:21.299Z,8.30
2019-03-29T20:54:51.506Z,8.30
2019-03-29T20:57:21.727Z,8.30
2019-03-29T20:59:51.962Z,8.30
2019-03-29T21:02:22.270Z,8.20
2019-03-29T21:04:52.558Z,8.30
2019-03-29T21:07:23.158Z,8.30
2019-03-29T21:09:53.451Z,8.30
2019-03-29T21:12:24.163Z,8.20
2019-03-29T21:14:56.043Z,8.20
2019-03-29T21:17:26.299Z,8.10
2019-03-29T21:19:56.549Z,8.10
2019-03-29T21:22:26.790Z,8.00
2019-03-29T21:24:57.049Z,8.00
2019-03-29T21:27:27.342Z,7.90
2019-03-29T21:29:57.666Z,7.90
2019-03-29T21:32:27.930Z,7.90
2019-03-29T21:34:58.247Z,7.80
2019-03-29T21:37:28.470Z,7.80
2019-03-29T21:39:58.874Z,7.80
2019-03-29T21:42:29.110Z,7.70
2019-03-29T21:44:59.345Z,7.70
2019-03-29T21:47:29.566Z,7.80
2019-03-29T21:50:00.023Z,7.70
2019-03-29T21:52:30.415Z,7.70
2019-03-29T21:55:00.671Z,7.60
2019-03-29T21:57:30.888Z,7.60
2019-03-29T22:00:01.142Z,7.50
2019-03-29T22:02:32.635Z,7.50
2019-03-29T22:05:02.940Z,7.50
2019-03-29T22:07:33.178Z,7.50
2019-03-29T22:10:03.694Z,7.50
2019-03-29T22:12:34.023Z,7.50
2019-03-29T22:15:05.554Z,7.40
2019-03-29T22:17:36.886Z,7.40
2019-03-29T22:20:08.082Z,7.30
2019-03-29T22:22:39.021Z,7.30
2019-03-29T22:25:09.562Z,7.30
2019-03-29T22:27:39.801Z,7.20
2019-03-29T22:30:13.450Z,7.20
2019-03-29T22:32:43.703Z,7.20
2019-03-29T22:35:14.090Z,7.20
2019-03-29T22:37:44.322Z,7.20
2019-03-29T22:40:14.679Z,7.20
2019-03-29T22:42:44.990Z,7.20
2019-03-29T22:45:15.372Z,7.20
2019-03-29T22:47:45.686Z,7.30
2019-03-29T22:50:16.059Z,7.30
2019-03-29T22:52:46.415Z,7.30
2019-03-29T22:55:16.653Z,7.20
2019-03-29T22:57:47.244Z,7.10
2019-03-29T23:00:35.365Z,7.10
2019-03-29T23:03:07.978Z,7.00
2019-03-29T23:05:39.698Z,7.00
2019-03-29T23:08:10.085Z,6.90
2019-03-29T23:10:40.407Z,7.00
2019-03-29T23:13:10.794Z,7.00
2019-03-29T23:15:41.036Z,7.00
2019-03-29T23:18:11.269Z,7.00
2019-03-29T23:20:41.522Z,6.90
2019-03-29T23:23:11.822Z,6.90
2019-03-29T23:25:42.054Z,6.80
2019-03-29T23:28:12.418Z,6.80
2019-03-29T23:30:42.666Z,6.70
2019-03-29T23:33:14.517Z,6.70
2019-03-29T23:35:44.741Z,6.70
2019-03-29T23:38:14.990Z,6.70
2019-03-29T23:40:45.271Z,6.70
2019-03-29T23:43:15.514Z,6.70
2019-03-29T23:45:45.752Z,6.60
2019-03-29T23:48:15.986Z,6.60
2019-03-29T23:50:46.246Z,6.60
2019-03-29T23:53:16.895Z,6.60
2019-03-29T23:55:47.214Z,6.60
2019-03-29T23:58:17.471Z,6.50
